PWSweather.com
Personal Weather Stations
Station Observations
KCTCOLEB1
Sandy Brook, Colebrook, CT 06021

Sandy BrookColebrook, CT 06021

Lat: 42.0018, Lon: -73.0825

Elevation: 935

Station Type: Davis Vantage Pro2 + Solar + UV

Latest ConditionsUpdated 7:30:00 PM EST Tuesday, Feb 9, 2016
Currently Today's Max Today's Min Today's Average
Temperature 23.8°F-4.6°C 31.5°F-0.3°C 17.9°F-7.8°C 24.0°F-4.4°C
Dew Point 21.0°F-6.1°C 26.4°F-3.1°C 15.7°F-9.1°C 20.8°F-6.2°C
Winds Calm Calm 2.5 mph WNW4.0 kmh WNW - 0.4 mph 0.6 kmh
Wind Gusts -- 4.0 mph6.4 kmh - -
Humidity 89% 92% 75% 88%
Pressure 29.61 in1002.7 mb 29.77 in1008.1 mb 29.56 in1001.0 mb -
Precipitation - 0.02 in0.5 mm - -
Hour Temp Dew Point Humidity Winds Wind Gusts Pressure Precip Precip Rate Daily Precip Total
07:30 PM 23.8°F-4.6°C 21.0°F-6.1°C 89% Calm Calm -- 29.61 in1002.7 mb - 0.00 in0.0 mm 0.02 in0.5 mm
07:20 PM 24.2°F-4.3°C 21.4°F-5.9°C 89% Calm Calm -- 29.61 in1002.7 mb - 0.00 in0.0 mm 0.02 in0.5 mm
07:10 PM 24.5°F-4.2°C 21.7°F-5.7°C 89% Calm Calm -- 29.61 in1002.7 mb - 0.00 in0.0 mm 0.02 in0.5 mm
07:00 PM 24.7°F-4.1°C 21.9°F-5.6°C 89% Calm Calm -- 29.60 in1002.4 mb - 0.00 in0.0 mm 0.02 in0.5 mm
06:50 PM 25.0°F-3.9°C 22.2°F-5.4°C 89% Calm Calm -- 29.60 in1002.4 mb - 0.00 in0.0 mm 0.02 in0.5 mm
06:40 PM 25.2°F-3.8°C 22.4°F-5.3°C 89% Calm Calm -- 29.60 in1002.4 mb - 0.00 in0.0 mm 0.02 in0.5 mm
06:30 PM 25.3°F-3.7°C 22.3°F-5.4°C 88% Calm Calm -- 29.60 in1002.4 mb - 0.00 in0.0 mm 0.02 in0.5 mm
06:20 PM 25.5°F-3.6°C 22.4°F-5.3°C 88% Calm Calm -- 29.59 in1002.0 mb - 0.00 in0.0 mm 0.02 in0.5 mm
06:10 PM 25.7°F-3.5°C 22.6°F-5.2°C 88% Calm Calm -- 29.59 in1002.0 mb - 0.00 in0.0 mm 0.02 in0.5 mm
06:00 PM 25.9°F-3.4°C 22.6°F-5.2°C 87% Calm Calm -- 29.60 in1002.4 mb - 0.00 in0.0 mm 0.02 in0.5 mm
05:50 PM 26.2°F-3.2°C 22.6°F-5.2°C 86% Calm Calm -- 29.59 in1002.0 mb - 0.00 in0.0 mm 0.02 in0.5 mm
05:40 PM 26.5°F-3.1°C 22.6°F-5.2°C 85% Calm Calm -- 29.59 in1002.0 mb - 0.00 in0.0 mm 0.02 in0.5 mm
05:30 PM 26.9°F-2.8°C 23.0°F-5.0°C 85% Calm Calm -- 29.59 in1002.0 mb - 0.00 in0.0 mm 0.02 in0.5 mm
05:20 PM 27.3°F-2.6°C 23.4°F-4.8°C 85% Calm Calm -- 29.59 in1002.0 mb - 0.00 in0.0 mm 0.02 in0.5 mm
05:10 PM 27.6°F-2.4°C 23.9°F-4.5°C 86% Calm Calm -- 29.59 in1002.0 mb - 0.00 in0.0 mm 0.02 in0.5 mm
05:00 PM 27.7°F-2.4°C 24.3°F-4.3°C 87% Calm Calm -- 29.59 in1002.0 mb - 0.00 in0.0 mm 0.02 in0.5 mm
04:50 PM 27.8°F-2.3°C 24.2°F-4.3°C 86% Calm Calm -- 29.59 in1002.0 mb - 0.00 in0.0 mm 0.02 in0.5 mm
04:40 PM 27.8°F-2.3°C 23.9°F-4.5°C 85% Calm Calm -- 29.59 in1002.0 mb - 0.00 in0.0 mm 0.02 in0.5 mm
04:30 PM 27.9°F-2.3°C 24.0°F-4.4°C 85% Calm Calm 1.0 mph1.6 kmh 29.59 in1002.0 mb - 0.00 in0.0 mm 0.02 in0.5 mm
04:20 PM 27.8°F-2.3°C 23.9°F-4.5°C 85% Calm Calm -- 29.59 in1002.0 mb - 0.00 in0.0 mm 0.02 in0.5 mm
04:10 PM 27.7°F-2.4°C 24.1°F-4.4°C 86% 0.1 mph S0.2 kmh S 1.0 mph1.6 kmh 29.59 in1002.0 mb - 0.00 in0.0 mm 0.02 in0.5 mm
04:00 PM 27.6°F-2.4°C 23.4°F-4.8°C 84% Calm Calm -- 29.59 in1002.0 mb - 0.00 in0.0 mm 0.02 in0.5 mm
03:50 PM 27.4°F-2.6°C 23.5°F-4.7°C 85% 0.2 mph S0.3 kmh S 1.0 mph1.6 kmh 29.58 in1001.7 mb - 0.00 in0.0 mm 0.02 in0.5 mm
03:40 PM 27.4°F-2.6°C 23.7°F-4.6°C 86% 0.7 mph SW1.1 kmh SW 2.0 mph3.2 kmh 29.58 in1001.7 mb - 0.00 in0.0 mm 0.02 in0.5 mm
03:30 PM 27.4°F-2.6°C 23.8°F-4.6°C 86% 0.8 mph SW1.3 kmh SW 1.0 mph1.6 kmh 29.57 in1001.4 mb - 0.00 in0.0 mm 0.02 in0.5 mm
03:20 PM 27.4°F-2.6°C 24.0°F-4.4°C 87% 0.9 mph W1.4 kmh W 2.0 mph3.2 kmh 29.58 in1001.7 mb - 0.00 in0.0 mm 0.02 in0.5 mm
03:10 PM 27.3°F-2.6°C 23.7°F-4.6°C 86% 0.1 mph W0.2 kmh W 1.0 mph1.6 kmh 29.57 in1001.4 mb - 0.00 in0.0 mm 0.02 in0.5 mm
03:00 PM 27.4°F-2.6°C 24.0°F-4.4°C 87% 1.3 mph WSW2.1 kmh WSW 2.0 mph3.2 kmh 29.57 in1001.4 mb - 0.00 in0.0 mm 0.02 in0.5 mm
02:50 PM 27.5°F-2.5°C 23.9°F-4.5°C 86% 0.8 mph WNW1.3 kmh WNW 2.0 mph3.2 kmh 29.57 in1001.4 mb - 0.00 in0.0 mm 0.02 in0.5 mm
02:40 PM 27.7°F-2.4°C 24.0°F-4.4°C 86% 2.3 mph WNW3.7 kmh WNW 3.0 mph4.8 kmh 29.57 in1001.4 mb - 0.00 in0.0 mm 0.02 in0.5 mm
02:30 PM 27.8°F-2.3°C 23.9°F-4.5°C 85% 1.3 mph WSW2.1 kmh WSW 2.0 mph3.2 kmh 29.57 in1001.4 mb - 0.00 in0.0 mm 0.02 in0.5 mm
02:20 PM 28.2°F-2.1°C 24.3°F-4.3°C 85% 2.4 mph W3.9 kmh W 3.0 mph4.8 kmh 29.57 in1001.4 mb - 0.00 in0.0 mm 0.02 in0.5 mm
02:10 PM 29.0°F-1.7°C 25.0°F-3.9°C 85% 2.1 mph WSW3.4 kmh WSW 3.0 mph4.8 kmh 29.57 in1001.4 mb - 0.00 in0.0 mm 0.02 in0.5 mm
02:00 PM 29.6°F-1.3°C 25.7°F-3.5°C 85% 2.5 mph WNW4.0 kmh WNW 4.0 mph6.4 kmh 29.56 in1001.0 mb - 0.00 in0.0 mm 0.02 in0.5 mm
01:50 PM 30.1°F-1.1°C 25.8°F-3.4°C 84% 0.4 mph W0.6 kmh W 2.0 mph3.2 kmh 29.56 in1001.0 mb - 0.01 in0.3 mm 0.02 in0.5 mm
01:40 PM 30.2°F-1.0°C 25.4°F-3.7°C 82% 1.3 mph W2.1 kmh W 1.0 mph1.6 kmh 29.56 in1001.0 mb - 0.00 in0.0 mm 0.01 in0.3 mm
01:30 PM 30.7°F-0.7°C 25.9°F-3.4°C 82% 2.0 mph WSW3.2 kmh WSW 3.0 mph4.8 kmh 29.56 in1001.0 mb - 0.00 in0.0 mm 0.01 in0.3 mm
01:20 PM 31.2°F-0.4°C 25.7°F-3.5°C 80% 1.2 mph W1.9 kmh W 3.0 mph4.8 kmh 29.57 in1001.4 mb - 0.00 in0.0 mm 0.01 in0.3 mm
01:10 PM 31.3°F-0.4°C 26.1°F-3.3°C 81% 0.8 mph W1.3 kmh W 3.0 mph4.8 kmh 29.57 in1001.4 mb - 0.00 in0.0 mm 0.01 in0.3 mm
01:00 PM 31.0°F-0.6°C 26.4°F-3.1°C 83% Calm Calm -- 29.57 in1001.4 mb - 0.00 in0.0 mm 0.01 in0.3 mm
12:50 PM 31.0°F-0.6°C 26.1°F-3.3°C 82% Calm Calm -- 29.57 in1001.4 mb - 0.00 in0.0 mm 0.01 in0.3 mm
12:40 PM 31.5°F-0.3°C 26.0°F-3.3°C 80% 1.1 mph WSW1.8 kmh WSW 2.0 mph3.2 kmh 29.58 in1001.7 mb - 0.01 in0.3 mm 0.01 in0.3 mm
12:30 PM 31.4°F-0.3°C 25.3°F-3.7°C 78% 2.4 mph WSW3.9 kmh WSW 3.0 mph4.8 kmh 29.58 in1001.7 mb - 0.00 in0.0 mm 0.00 in0.0 mm
12:20 PM 30.9°F-0.6°C 25.2°F-3.8°C 79% 0.3 mph WSW0.5 kmh WSW 3.0 mph4.8 kmh 29.58 in1001.7 mb - 0.00 in0.0 mm 0.00 in0.0 mm
12:10 PM 30.1°F-1.1°C 23.8°F-4.6°C 77% 0.9 mph NW1.4 kmh NW 2.0 mph3.2 kmh 29.59 in1002.0 mb - 0.00 in0.0 mm 0.00 in0.0 mm
12:00 PM 29.9°F-1.2°C 23.3°F-4.8°C 76% 0.9 mph E1.4 kmh E 2.0 mph3.2 kmh 29.60 in1002.4 mb - 0.00 in0.0 mm 0.00 in0.0 mm
11:50 AM 29.6°F-1.3°C 22.7°F-5.2°C 75% 0.6 mph S1.0 kmh S 1.0 mph1.6 kmh 29.61 in1002.7 mb - 0.00 in0.0 mm 0.00 in0.0 mm
11:40 AM 29.6°F-1.3°C 23.6°F-4.7°C 78% 0.2 mph SSE0.3 kmh SSE 1.0 mph1.6 kmh 29.61 in1002.7 mb - 0.00 in0.0 mm 0.00 in0.0 mm
11:30 AM 29.3°F-1.5°C 23.6°F-4.7°C 79% 1.3 mph S2.1 kmh S 2.0 mph3.2 kmh 29.62 in1003.0 mb - 0.00 in0.0 mm 0.00 in0.0 mm
11:20 AM 28.8°F-1.8°C 23.7°F-4.6°C 81% Calm Calm -- 29.63 in1003.4 mb - 0.00 in0.0 mm 0.00 in0.0 mm
11:10 AM 28.1°F-2.2°C 23.0°F-5.0°C 81% 0.2 mph W0.3 kmh W 1.0 mph1.6 kmh 29.63 in1003.4 mb - 0.00 in0.0 mm 0.00 in0.0 mm
11:00 AM 27.1°F-2.7°C 22.3°F-5.4°C 82% 1.4 mph NNE2.3 kmh NNE 3.0 mph4.8 kmh 29.64 in1003.7 mb - 0.00 in0.0 mm 0.00 in0.0 mm
10:50 AM 26.7°F-2.9°C 21.7°F-5.7°C 81% 1.0 mph ESE1.6 kmh ESE 2.0 mph3.2 kmh 29.65 in1004.1 mb - 0.00 in0.0 mm 0.00 in0.0 mm
10:40 AM 26.2°F-3.2°C 21.7°F-5.7°C 83% 1.2 mph S1.9 kmh S 2.0 mph3.2 kmh 29.66 in1004.4 mb - 0.00 in0.0 mm 0.00 in0.0 mm
10:30 AM 25.5°F-3.6°C 21.3°F-5.9°C 84% 0.3 mph S0.5 kmh S 2.0 mph3.2 kmh 29.67 in1004.7 mb - 0.00 in0.0 mm 0.00 in0.0 mm
10:20 AM 24.7°F-4.1°C 20.9°F-6.2°C 85% 0.4 mph WSW0.6 kmh WSW 1.0 mph1.6 kmh 29.68 in1005.1 mb - 0.00 in0.0 mm 0.00 in0.0 mm
10:10 AM 24.3°F-4.3°C 20.7°F-6.3°C 86% 0.8 mph SW1.3 kmh SW 2.0 mph3.2 kmh 29.68 in1005.1 mb - 0.00 in0.0 mm 0.00 in0.0 mm
10:00 AM 23.8°F-4.6°C 20.2°F-6.6°C 86% 0.5 mph WSW0.8 kmh WSW 2.0 mph3.2 kmh 29.68 in1005.1 mb - 0.00 in0.0 mm 0.00 in0.0 mm
09:50 AM 23.1°F-4.9°C 20.4°F-6.4°C 89% 0.3 mph WSW0.5 kmh WSW 1.0 mph1.6 kmh 29.69 in1005.4 mb - 0.00 in0.0 mm 0.00 in0.0 mm
09:40 AM 22.6°F-5.2°C 19.6°F-6.9°C 88% 0.6 mph WSW1.0 kmh WSW 1.0 mph1.6 kmh 29.70 in1005.8 mb - 0.00 in0.0 mm 0.00 in0.0 mm
09:30 AM 22.1°F-5.5°C 19.4°F-7.0°C 89% Calm Calm -- 29.70 in1005.8 mb - 0.00 in0.0 mm 0.00 in0.0 mm
09:20 AM 21.6°F-5.8°C 19.1°F-7.2°C 90% Calm Calm -- 29.70 in1005.8 mb - 0.00 in0.0 mm 0.00 in0.0 mm
09:10 AM 20.9°F-6.2°C 18.5°F-7.5°C 90% 0.4 mph SSE0.6 kmh SSE 1.0 mph1.6 kmh 29.71 in1006.1 mb - 0.00 in0.0 mm 0.00 in0.0 mm
09:00 AM 20.3°F-6.5°C 18.1°F-7.7°C 91% 0.2 mph SSE0.3 kmh SSE 1.0 mph1.6 kmh 29.71 in1006.1 mb - 0.00 in0.0 mm 0.00 in0.0 mm
08:50 AM 19.8°F-6.8°C 17.6°F-8.0°C 91% 0.1 mph ENE0.2 kmh ENE 1.0 mph1.6 kmh 29.71 in1006.1 mb - 0.00 in0.0 mm 0.00 in0.0 mm
08:40 AM 19.5°F-6.9°C 17.3°F-8.2°C 91% 0.1 mph WNW0.2 kmh WNW 2.0 mph3.2 kmh 29.72 in1006.4 mb - 0.00 in0.0 mm 0.00 in0.0 mm
08:30 AM 19.3°F-7.1°C 17.1°F-8.3°C 91% 0.5 mph WNW0.8 kmh WNW 1.0 mph1.6 kmh 29.72 in1006.4 mb - 0.00 in0.0 mm 0.00 in0.0 mm
08:20 AM 19.0°F-7.2°C 16.8°F-8.4°C 91% 1.0 mph WNW1.6 kmh WNW 2.0 mph3.2 kmh 29.72 in1006.4 mb - 0.00 in0.0 mm 0.00 in0.0 mm
08:10 AM 18.8°F-7.3°C 16.6°F-8.6°C 91% 1.0 mph NW1.6 kmh NW 2.0 mph3.2 kmh 29.72 in1006.4 mb - 0.00 in0.0 mm 0.00 in0.0 mm
08:00 AM 18.5°F-7.5°C 16.6°F-8.6°C 92% 0.8 mph NW1.3 kmh NW 1.0 mph1.6 kmh 29.72 in1006.4 mb - 0.00 in0.0 mm 0.00 in0.0 mm
07:50 AM 18.3°F-7.6°C 16.3°F-8.7°C 92% 1.0 mph W1.6 kmh W 2.0 mph3.2 kmh 29.72 in1006.4 mb - 0.00 in0.0 mm 0.00 in0.0 mm
07:40 AM 18.0°F-7.8°C 16.1°F-8.8°C 92% 0.9 mph W1.4 kmh W 2.0 mph3.2 kmh 29.72 in1006.4 mb - 0.00 in0.0 mm 0.00 in0.0 mm
07:30 AM 17.9°F-7.8°C 15.7°F-9.1°C 91% 1.0 mph W1.6 kmh W 2.0 mph3.2 kmh 29.71 in1006.1 mb - 0.00 in0.0 mm 0.00 in0.0 mm
07:20 AM 17.9°F-7.8°C 15.7°F-9.1°C 91% Calm Calm -- 29.69 in1005.4 mb - 0.00 in0.0 mm 0.00 in0.0 mm
07:10 AM 18.0°F-7.8°C 15.8°F-9.0°C 91% Calm Calm -- 29.68 in1005.1 mb - 0.00 in0.0 mm 0.00 in0.0 mm
07:00 AM 18.1°F-7.7°C 15.9°F-8.9°C 91% Calm Calm -- 29.67 in1004.7 mb - 0.00 in0.0 mm 0.00 in0.0 mm
06:50 AM 18.2°F-7.7°C 16.0°F-8.9°C 91% Calm Calm 1.0 mph1.6 kmh 29.68 in1005.1 mb - 0.00 in0.0 mm 0.00 in0.0 mm
06:40 AM 18.3°F-7.6°C 15.8°F-9.0°C 90% Calm Calm -- 29.68 in1005.1 mb - 0.00 in0.0 mm 0.00 in0.0 mm
06:30 AM 18.4°F-7.6°C 16.0°F-8.9°C 90% Calm Calm -- 29.68 in1005.1 mb - 0.00 in0.0 mm 0.00 in0.0 mm
06:20 AM 18.7°F-7.4°C 16.3°F-8.7°C 90% Calm Calm -- 29.67 in1004.7 mb - 0.00 in0.0 mm 0.00 in0.0 mm
06:10 AM 19.2°F-7.1°C 16.5°F-8.6°C 89% 0.1 mph W0.2 kmh W 1.0 mph1.6 kmh 29.67 in1004.7 mb - 0.00 in0.0 mm 0.00 in0.0 mm
06:00 AM 19.5°F-6.9°C 16.8°F-8.4°C 89% Calm Calm -- 29.67 in1004.7 mb - 0.00 in0.0 mm 0.00 in0.0 mm
05:50 AM 19.8°F-6.8°C 17.3°F-8.2°C 90% Calm Calm -- 29.68 in1005.1 mb - 0.00 in0.0 mm 0.00 in0.0 mm
05:40 AM 20.1°F-6.6°C 17.9°F-7.8°C 91% 0.1 mph W0.2 kmh W 1.0 mph1.6 kmh 29.69 in1005.4 mb - 0.00 in0.0 mm 0.00 in0.0 mm
05:30 AM 20.2°F-6.6°C 18.0°F-7.8°C 91% 0.1 mph W0.2 kmh W -- 29.69 in1005.4 mb - 0.00 in0.0 mm 0.00 in0.0 mm
05:20 AM 20.3°F-6.5°C 18.1°F-7.7°C 91% 0.4 mph W0.6 kmh W 2.0 mph3.2 kmh 29.70 in1005.8 mb - 0.00 in0.0 mm 0.00 in0.0 mm
05:10 AM 20.4°F-6.4°C 18.2°F-7.7°C 91% 0.1 mph W0.2 kmh W -- 29.71 in1006.1 mb - 0.00 in0.0 mm 0.00 in0.0 mm
05:00 AM 20.5°F-6.4°C 18.3°F-7.6°C 91% 0.1 mph W0.2 kmh W -- 29.72 in1006.4 mb - 0.00 in0.0 mm 0.00 in0.0 mm
04:50 AM 20.5°F-6.4°C 18.3°F-7.6°C 91% Calm Calm -- 29.72 in1006.4 mb - 0.00 in0.0 mm 0.00 in0.0 mm
04:40 AM 20.6°F-6.3°C 18.4°F-7.6°C 91% Calm Calm -- 29.72 in1006.4 mb - 0.00 in0.0 mm 0.00 in0.0 mm
04:30 AM 20.6°F-6.3°C 18.4°F-7.6°C 91% 0.2 mph W0.3 kmh W 1.0 mph1.6 kmh 29.72 in1006.4 mb - 0.00 in0.0 mm 0.00 in0.0 mm
04:20 AM 20.7°F-6.3°C 18.5°F-7.5°C 91% Calm Calm -- 29.72 in1006.4 mb - 0.00 in0.0 mm 0.00 in0.0 mm
04:10 AM 20.7°F-6.3°C 18.5°F-7.5°C 91% Calm Calm -- 29.72 in1006.4 mb - 0.00 in0.0 mm 0.00 in0.0 mm
04:00 AM 20.8°F-6.2°C 18.6°F-7.4°C 91% Calm Calm -- 29.72 in1006.4 mb - 0.00 in0.0 mm 0.00 in0.0 mm
03:50 AM 20.8°F-6.2°C 18.6°F-7.4°C 91% Calm Calm -- 29.72 in1006.4 mb - 0.00 in0.0 mm 0.00 in0.0 mm
03:40 AM 20.9°F-6.2°C 18.7°F-7.4°C 91% Calm Calm -- 29.72 in1006.4 mb - 0.00 in0.0 mm 0.00 in0.0 mm
03:30 AM 20.9°F-6.2°C 18.7°F-7.4°C 91% Calm Calm -- 29.72 in1006.4 mb - 0.00 in0.0 mm 0.00 in0.0 mm
03:20 AM 21.0°F-6.1°C 18.8°F-7.3°C 91% 0.2 mph W0.3 kmh W 1.0 mph1.6 kmh 29.72 in1006.4 mb - 0.00 in0.0 mm 0.00 in0.0 mm
03:10 AM 21.1°F-6.1°C 18.9°F-7.3°C 91% Calm Calm -- 29.72 in1006.4 mb - 0.00 in0.0 mm 0.00 in0.0 mm
03:00 AM 21.1°F-6.1°C 18.9°F-7.3°C 91% Calm Calm -- 29.73 in1006.8 mb - 0.00 in0.0 mm 0.00 in0.0 mm
02:50 AM 21.2°F-6.0°C 19.0°F-7.2°C 91% 0.3 mph W0.5 kmh W 1.0 mph1.6 kmh 29.73 in1006.8 mb - 0.00 in0.0 mm 0.00 in0.0 mm
02:40 AM 21.2°F-6.0°C 19.0°F-7.2°C 91% Calm Calm -- 29.73 in1006.8 mb - 0.00 in0.0 mm 0.00 in0.0 mm
02:30 AM 21.2°F-6.0°C 19.0°F-7.2°C 91% 0.8 mph W1.3 kmh W 1.0 mph1.6 kmh 29.73 in1006.8 mb - 0.00 in0.0 mm 0.00 in0.0 mm
02:20 AM 21.3°F-5.9°C 19.1°F-7.2°C 91% 0.1 mph WNW0.2 kmh WNW -- 29.74 in1007.1 mb - 0.00 in0.0 mm 0.00 in0.0 mm
02:10 AM 21.3°F-5.9°C 19.1°F-7.2°C 91% 0.5 mph SW0.8 kmh SW 2.0 mph3.2 kmh 29.73 in1006.8 mb - 0.00 in0.0 mm 0.00 in0.0 mm
02:00 AM 21.4°F-5.9°C 19.4°F-7.0°C 92% Calm Calm 1.0 mph1.6 kmh 29.74 in1007.1 mb - 0.00 in0.0 mm 0.00 in0.0 mm
01:50 AM 21.4°F-5.9°C 19.2°F-7.1°C 91% Calm Calm -- 29.74 in1007.1 mb - 0.00 in0.0 mm 0.00 in0.0 mm
01:40 AM 21.4°F-5.9°C 19.4°F-7.0°C 92% Calm Calm -- 29.74 in1007.1 mb - 0.00 in0.0 mm 0.00 in0.0 mm
01:30 AM 21.4°F-5.9°C 19.2°F-7.1°C 91% Calm Calm -- 29.75 in1007.5 mb - 0.00 in0.0 mm 0.00 in0.0 mm
01:20 AM 21.4°F-5.9°C 19.2°F-7.1°C 91% Calm Calm -- 29.75 in1007.5 mb - 0.00 in0.0 mm 0.00 in0.0 mm
01:10 AM 21.5°F-5.8°C 19.3°F-7.1°C 91% Calm Calm -- 29.75 in1007.5 mb - 0.00 in0.0 mm 0.00 in0.0 mm
01:00 AM 21.5°F-5.8°C 19.3°F-7.1°C 91% Calm Calm -- 29.75 in1007.5 mb - 0.00 in0.0 mm 0.00 in0.0 mm
12:50 AM 21.5°F-5.8°C 19.3°F-7.1°C 91% Calm Calm -- 29.75 in1007.5 mb - 0.00 in0.0 mm 0.00 in0.0 mm
12:40 AM 21.6°F-5.8°C 19.4°F-7.0°C 91% 0.4 mph WSW0.6 kmh WSW 1.0 mph1.6 kmh 29.76 in1007.8 mb - 0.00 in0.0 mm 0.00 in0.0 mm
12:30 AM 21.6°F-5.8°C 19.4°F-7.0°C 91% Calm Calm 1.0 mph1.6 kmh 29.76 in1007.8 mb - 0.00 in0.0 mm 0.00 in0.0 mm
12:20 AM 21.6°F-5.8°C 19.4°F-7.0°C 91% Calm Calm -- 29.76 in1007.8 mb - 0.00 in0.0 mm 0.00 in0.0 mm
12:10 AM 21.7°F-5.7°C 19.5°F-6.9°C 91% Calm Calm -- 29.77 in1008.1 mb - 0.00 in0.0 mm 0.00 in0.0 mm
12:00 AM 21.7°F-5.7°C 19.5°F-6.9°C 91% Calm Calm -- 29.77 in1008.1 mb - 0.00 in0.0 mm 0.00 in0.0 mm